Time;durP1;ratioP1;P1;durP2;ratioP2;P2;SDS_P1;SDS_P2;PMS_P1;PMS_P2;Temp;Humidity;BMP_temperature;BMP_pressure;BME280_temperature;BME280_humidity;BME280_pressure;Samples;Min_cycle;Max_cycle;Signal;HPM_P1;HPM_P2
2023/04/03 00:02:50;;;;;;;;;;;19.30;53.40;;;;;;6269575;28;20294;-66
2023/04/03 00:05:50;;;;;;;;;;;19.30;53.30;;;;;;6259269;28;19909;-68
2023/04/03 00:08:51;;;;;;;;;;;19.30;53.30;;;;;;6244334;28;19920;-69
2023/04/03 00:11:52;;;;;;;;;;;19.30;53.30;;;;;;6244179;28;19917;-68
2023/04/03 00:14:53;;;;;;;;;;;19.30;53.30;;;;;;6245003;28;20007;-68
2023/04/03 00:17:53;;;;;;;;;;;19.30;53.30;;;;;;6268898;28;19917;-68
2023/04/03 00:20:54;;;;;;;;;;;19.30;53.30;;;;;;6249421;28;20120;-68
2023/04/03 00:23:54;;;;;;;;;;;19.30;53.30;;;;;;6257817;28;19919;-68
2023/04/03 00:26:55;;;;;;;;;;;19.30;53.30;;;;;;6251030;28;19991;-68
2023/04/03 00:29:55;;;;;;;;;;;19.30;53.30;;;;;;6252738;28;19908;-68
2023/04/03 00:32:56;;;;;;;;;;;19.30;53.30;;;;;;6267908;28;19962;-68
2023/04/03 00:35:57;;;;;;;;;;;19.30;54.00;;;;;;6258838;28;20004;-68
2023/04/03 00:38:57;;;;;;;;;;;19.30;53.20;;;;;;6249916;28;19909;-68
2023/04/03 00:41:58;;;;;;;;;;;19.30;53.30;;;;;;6267883;28;20418;-68
2023/04/03 00:45:00;;;;;;;;;;;19.30;53.30;;;;;;6261681;28;19952;-68
2023/04/03 00:48:03;;;;;;;;;;;19.30;53.30;;;;;;6225985;28;20003;-68
2023/04/03 00:51:03;;;;;;;;;;;19.30;53.30;;;;;;6243053;28;20122;-68
2023/04/03 00:54:07;;;;;;;;;;;19.30;53.20;;;;;;6224970;28;20407;-68
2023/04/03 00:57:08;;;;;;;;;;;19.30;53.30;;;;;;6243457;28;19972;-68
2023/04/03 01:00:10;;;;;;;;;;;19.30;53.20;;;;;;6243568;28;20303;-68
2023/04/03 01:03:11;;;;;;;;;;;19.30;53.20;;;;;;6242888;28;20308;-68
2023/04/03 01:06:12;;;;;;;;;;;19.30;53.30;;;;;;6243441;28;19948;-68
2023/04/03 01:09:13;;;;;;;;;;;19.20;53.10;;;;;;6243662;28;19949;-68
2023/04/03 01:12:19;;;;;;;;;;;19.30;53.20;;;;;;6243712;28;19919;-68
2023/04/03 01:15:22;;;;;;;;;;;19.20;53.20;;;;;;6246624;28;19913;-68
2023/04/03 01:18:24;;;;;;;;;;;19.20;53.20;;;;;;6248195;28;19909;-68
2023/04/03 01:21:37;;;;;;;;;;;19.30;53.20;;;;;;6248181;28;19913;-68
2023/04/03 01:24:38;;;;;;;;;;;19.20;53.10;;;;;;6247762;28;19920;-68
2023/04/03 01:27:39;;;;;;;;;;;19.20;53.20;;;;;;6247762;28;19957;-68
2023/04/03 01:30:46;;;;;;;;;;;19.20;53.10;;;;;;6247673;28;19909;-68
2023/04/03 01:33:47;;;;;;;;;;;19.20;53.00;;;;;;6247426;28;20506;-68
2023/04/03 01:36:48;;;;;;;;;;;19.20;53.10;;;;;;6247341;28;19936;-68
2023/04/03 01:39:48;;;;;;;;;;;19.20;53.10;;;;;;6247562;28;19913;-68
2023/04/03 01:42:49;;;;;;;;;;;19.20;53.10;;;;;;6229028;28;19924;-68
2023/04/03 01:45:49;;;;;;;;;;;19.30;53.30;;;;;;6247198;28;19916;-68
2023/04/03 01:48:50;;;;;;;;;;;19.20;53.20;;;;;;6247098;28;19916;-68
2023/04/03 01:51:50;;;;;;;;;;;19.20;53.10;;;;;;6247001;28;19963;-68
2023/04/03 01:54:51;;;;;;;;;;;19.20;53.20;;;;;;6246668;28;19913;-68
2023/04/03 01:57:52;;;;;;;;;;;19.20;53.20;;;;;;6246877;28;20467;-68
2023/04/03 02:00:52;;;;;;;;;;;19.20;53.10;;;;;;6246994;28;19917;-68
2023/04/03 02:03:53;;;;;;;;;;;19.20;53.10;;;;;;6246421;28;19924;-68
2023/04/03 02:06:54;;;;;;;;;;;19.20;53.10;;;;;;6228671;28;19924;-68
2023/04/03 02:09:54;;;;;;;;;;;19.20;53.10;;;;;;6246852;28;19917;-68
2023/04/03 02:12:55;;;;;;;;;;;19.20;53.20;;;;;;6246692;28;19909;-68
2023/04/03 02:15:56;;;;;;;;;;;19.20;53.20;;;;;;6246690;28;19909;-68
2023/04/03 02:18:56;;;;;;;;;;;19.20;53.20;;;;;;6246642;28;19910;-68
2023/04/03 02:21:57;;;;;;;;;;;19.20;53.10;;;;;;6228534;28;20399;-68
2023/04/03 02:24:57;;;;;;;;;;;19.20;53.10;;;;;;6228110;28;20343;-68
2023/04/03 02:27:58;;;;;;;;;;;19.20;53.10;;;;;;6228359;28;19909;-68
2023/04/03 02:30:59;;;;;;;;;;;19.20;53.10;;;;;;6246639;28;20454;-68
2023/04/03 02:34:00;;;;;;;;;;;19.20;53.10;;;;;;6245321;28;20450;-68
2023/04/03 02:37:01;;;;;;;;;;;19.20;53.10;;;;;;6246325;28;19936;-68
2023/04/03 02:40:02;;;;;;;;;;;19.20;53.10;;;;;;6228031;28;20451;-68
2023/04/03 02:43:03;;;;;;;;;;;19.20;53.10;;;;;;6245673;28;19913;-68
2023/04/03 02:46:04;;;;;;;;;;;19.20;53.10;;;;;;6245621;28;20391;-68
2023/04/03 02:49:06;;;;;;;;;;;19.20;53.10;;;;;;6245631;28;19949;-68
2023/04/03 02:52:06;;;;;;;;;;;19.20;53.10;;;;;;6245128;28;20579;-68
2023/04/03 02:55:08;;;;;;;;;;;19.20;53.10;;;;;;6245027;28;19920;-69
2023/04/03 02:58:09;;;;;;;;;;;19.20;53.10;;;;;;6245528;28;19984;-68
2023/04/03 03:01:09;;;;;;;;;;;19.20;53.10;;;;;;6245470;28;19917;-68
2023/04/03 03:04:10;;;;;;;;;;;19.20;53.10;;;;;;6245069;28;19920;-68
2023/04/03 03:07:11;;;;;;;;;;;19.20;53.10;;;;;;6245401;28;19913;-68
2023/04/03 03:10:12;;;;;;;;;;;19.20;53.10;;;;;;6245357;28;19913;-68
2023/04/03 03:13:13;;;;;;;;;;;19.20;53.80;;;;;;6244953;28;19920;-68
2023/04/03 03:16:14;;;;;;;;;;;19.20;53.00;;;;;;6244528;28;19921;-68
2023/04/03 03:19:15;;;;;;;;;;;19.20;53.00;;;;;;6244818;28;19913;-68
2023/04/03 03:22:16;;;;;;;;;;;19.20;52.90;;;;;;6226922;28;20027;-68
2023/04/03 03:25:17;;;;;;;;;;;19.20;53.00;;;;;;6244538;28;19959;-68
2023/04/03 03:28:18;;;;;;;;;;;19.20;53.00;;;;;;6244188;28;19917;-68
2023/04/03 03:31:20;;;;;;;;;;;19.20;52.90;;;;;;6244898;28;19959;-68
2023/04/03 03:34:21;;;;;;;;;;;19.20;53.00;;;;;;6244174;28;20288;-68
2023/04/03 03:37:22;;;;;;;;;;;19.20;53.00;;;;;;6243236;28;19916;-68
2023/04/03 03:40:23;;;;;;;;;;;19.20;53.00;;;;;;6244140;28;19913;-68
2023/04/03 03:43:24;;;;;;;;;;;19.20;53.00;;;;;;6243983;28;19921;-68
2023/04/03 03:46:25;;;;;;;;;;;19.20;53.00;;;;;;6244294;28;19913;-68
2023/04/03 03:49:26;;;;;;;;;;;19.20;53.00;;;;;;6243943;28;19913;-68
2023/04/03 03:52:27;;;;;;;;;;;19.20;52.90;;;;;;6243859;28;20262;-68
2023/04/03 03:55:27;;;;;;;;;;;19.10;52.80;;;;;;6243765;28;19936;-68
2023/04/03 03:58:29;;;;;;;;;;;19.10;52.80;;;;;;6225988;28;19920;-68
2023/04/03 04:01:30;;;;;;;;;;;19.20;53.00;;;;;;6225897;28;19917;-68
2023/04/03 04:04:31;;;;;;;;;;;19.20;52.90;;;;;;6244145;28;19913;-68
2023/04/03 04:07:31;;;;;;;;;;;19.20;53.00;;;;;;6226171;28;19931;-68
2023/04/03 04:10:33;;;;;;;;;;;19.20;52.90;;;;;;6243567;28;19913;-68
2023/04/03 04:13:38;;;;;;;;;;;19.10;52.80;;;;;;6244218;28;19913;-68
2023/04/03 04:16:39;;;;;;;;;;;19.10;52.80;;;;;;6243627;28;19910;-68
2023/04/03 04:19:40;;;;;;;;;;;19.20;52.90;;;;;;6225654;28;20407;-68
2023/04/03 04:22:41;;;;;;;;;;;19.10;52.70;;;;;;6243381;28;20639;-68
2023/04/03 04:25:43;;;;;;;;;;;19.20;52.90;;;;;;6225463;28;19913;-68
2023/04/03 04:28:44;;;;;;;;;;;19.20;52.80;;;;;;6243571;28;19966;-68
2023/04/03 04:31:45;;;;;;;;;;;19.10;52.80;;;;;;6243765;28;19909;-68
2023/04/03 04:34:45;;;;;;;;;;;19.10;52.80;;;;;;6243531;28;19948;-68
2023/04/03 04:37:46;;;;;;;;;;;19.10;52.80;;;;;;6243443;28;19944;-68
2023/04/03 04:40:48;;;;;;;;;;;19.10;52.80;;;;;;6243359;28;19913;-68
2023/04/03 04:43:49;;;;;;;;;;;19.10;52.80;;;;;;6225049;28;19909;-68
2023/04/03 04:46:50;;;;;;;;;;;19.10;52.70;;;;;;6225662;28;19909;-68
2023/04/03 04:49:51;;;;;;;;;;;19.10;52.80;;;;;;6246231;28;19916;-68
2023/04/03 04:52:51;;;;;;;;;;;19.10;52.70;;;;;;6248253;28;19928;-68
2023/04/03 04:55:52;;;;;;;;;;;19.10;52.70;;;;;;6230242;28;19909;-68
2023/04/03 04:58:53;;;;;;;;;;;19.10;52.70;;;;;;6248251;28;20443;-68
2023/04/03 05:01:54;;;;;;;;;;;19.10;52.70;;;;;;6247453;28;20011;-68
2023/04/03 05:04:55;;;;;;;;;;;19.10;52.70;;;;;;6248255;28;20018;-68
2023/04/03 05:07:56;;;;;;;;;;;19.10;52.70;;;;;;6248210;28;19920;-68
2023/04/03 05:10:56;;;;;;;;;;;19.10;52.70;;;;;;6247980;28;19956;-68
2023/04/03 05:13:58;;;;;;;;;;;19.10;52.80;;;;;;6247844;28;19913;-68
2023/04/03 05:16:59;;;;;;;;;;;19.10;52.70;;;;;;6247694;28;19937;-68
2023/04/03 05:19:59;;;;;;;;;;;19.10;52.70;;;;;;6247576;28;19940;-68
2023/04/03 05:23:00;;;;;;;;;;;19.10;52.70;;;;;;6247407;28;19939;-68
2023/04/03 05:26:01;;;;;;;;;;;19.10;52.70;;;;;;6247622;28;19917;-68
2023/04/03 05:29:02;;;;;;;;;;;19.10;52.70;;;;;;6247269;28;19909;-68
2023/04/03 05:32:02;;;;;;;;;;;19.10;52.70;;;;;;6247338;28;19996;-68
2023/04/03 05:35:05;;;;;;;;;;;19.10;53.40;;;;;;6229548;28;20224;-68
2023/04/03 05:38:06;;;;;;;;;;;19.20;52.70;;;;;;6222606;28;19916;-69
2023/04/03 05:41:06;;;;;;;;;;;19.10;52.60;;;;;;6216562;28;19929;-69
2023/04/03 05:44:07;;;;;;;;;;;19.10;52.70;;;;;;6244100;28;19915;-69
2023/04/03 05:47:08;;;;;;;;;;;19.10;52.60;;;;;;6246397;28;19909;-68
2023/04/03 05:50:09;;;;;;;;;;;19.10;52.60;;;;;;6245617;28;19916;-68
2023/04/03 05:53:15;;;;;;;;;;;19.10;52.70;;;;;;6230113;28;20319;-68
2023/04/03 05:56:16;;;;;;;;;;;19.10;52.70;;;;;;6245940;28;19935;-69
2023/04/03 05:59:20;;;;;;;;;;;19.10;52.70;;;;;;6226885;28;20372;-68
2023/04/03 06:02:22;;;;;;;;;;;19.10;52.70;;;;;;6249245;28;20475;-69
2023/04/03 06:05:27;;;;;;;;;;;19.10;52.70;;;;;;6248421;28;19917;-69
2023/04/03 06:08:47;;;;;;;;;;;19.10;52.80;;;;;;6248868;28;19909;-69
2023/04/03 06:11:53;;;;;;;;;;;19.10;52.80;;;;;;6248010;28;19909;-69
2023/04/03 06:14:58;;;;;;;;;;;19.10;52.80;;;;;;6248595;28;19960;-69
2023/04/03 06:18:02;;;;;;;;;;;19.10;52.80;;;;;;6248205;28;20421;-69
2023/04/03 06:21:07;;;;;;;;;;;19.10;52.80;;;;;;6247678;28;19913;-69
2023/04/03 06:24:15;;;;;;;;;;;19.20;52.90;;;;;;6248189;28;20342;-69
2023/04/03 06:27:16;;;;;;;;;;;19.10;52.80;;;;;;6248174;28;19909;-72
2023/04/03 06:30:18;;;;;;;;;;;19.10;52.90;;;;;;6231115;28;19910;-69
2023/04/03 06:33:49;;;;;;;;;;;19.10;52.80;;;;;;6247964;28;20032;-68
2023/04/03 06:36:50;;;;;;;;;;;19.10;52.80;;;;;;6228853;28;19913;-68
2023/04/03 06:39:51;;;;;;;;;;;19.10;52.90;;;;;;6248064;28;19909;-69
2023/04/03 06:42:51;;;;;;;;;;;19.10;52.90;;;;;;6247406;28;19920;-68
2023/04/03 06:45:53;;;;;;;;;;;19.10;52.90;;;;;;6247985;28;19913;-70
2023/04/03 06:48:53;;;;;;;;;;;19.10;53.00;;;;;;6247266;28;19913;-70
2023/04/03 06:51:54;;;;;;;;;;;19.10;52.90;;;;;;6247332;28;20307;-70
2023/04/03 06:54:57;;;;;;;;;;;19.10;53.10;;;;;;6246964;28;19979;-70
2023/04/03 06:57:58;;;;;;;;;;;19.10;52.90;;;;;;6247074;28;19909;-71
2023/04/03 07:34:07;;;;;;;;;;;19.10;52.00;;;;;;6267340;28;20007;-71
2023/04/03 07:55:56;;;;;;;;;;;19.10;52.10;;;;;;6211427;28;20348;-70
2023/04/03 08:17:47;;;;;;;;;;;19.30;51.60;;;;;;6214296;28;19914;-71
2023/04/03 08:24:26;;;;;;;;;;;19.30;51.60;;;;;;6214062;28;20595;-73
2023/04/03 08:38:37;;;;;;;;;;;19.20;51.70;;;;;;6100465;29;19915;-69
2023/04/03 08:41:39;;;;;;;;;;;19.20;51.70;;;;;;6123015;29;19958;-72
2023/04/03 08:44:46;;;;;;;;;;;19.20;51.70;;;;;;6120717;28;19922;-68
2023/04/03 08:47:50;;;;;;;;;;;19.20;51.70;;;;;;6196763;28;19910;-68
2023/04/03 08:50:56;;;;;;;;;;;19.20;51.60;;;;;;6215734;28;20430;-68
2023/04/03 08:53:59;;;;;;;;;;;19.20;51.50;;;;;;6230821;28;19925;-68
2023/04/03 08:57:02;;;;;;;;;;;19.20;51.60;;;;;;6224530;28;19976;-68
2023/04/03 09:00:05;;;;;;;;;;;19.20;51.70;;;;;;6251153;28;19920;-68
2023/04/03 09:03:11;;;;;;;;;;;19.20;51.60;;;;;;6227264;28;19917;-68
2023/04/03 09:06:13;;;;;;;;;;;19.20;51.60;;;;;;6264787;28;19909;-68
2023/04/03 09:09:20;;;;;;;;;;;19.20;51.60;;;;;;6248305;28;19909;-68
2023/04/03 09:12:23;;;;;;;;;;;19.20;51.60;;;;;;6245077;28;19909;-68
2023/04/03 09:15:25;;;;;;;;;;;19.20;51.60;;;;;;6256705;28;19920;-68
2023/04/03 09:18:32;;;;;;;;;;;19.20;51.70;;;;;;6269498;28;20386;-68
2023/04/03 09:21:42;;;;;;;;;;;19.10;51.60;;;;;;6230200;28;20012;-68
2023/04/03 09:24:45;;;;;;;;;;;19.10;51.60;;;;;;6233356;28;19920;-68
2023/04/03 09:27:45;;;;;;;;;;;19.10;51.60;;;;;;6269446;28;20004;-72
2023/04/03 09:30:46;;;;;;;;;;;19.10;51.60;;;;;;6247883;28;19910;-68
2023/04/03 09:33:50;;;;;;;;;;;19.10;51.50;;;;;;6244383;28;19956;-70
2023/04/03 09:36:52;;;;;;;;;;;19.20;51.60;;;;;;6248671;28;19913;-70
2023/04/03 10:02:27;;;;;;;;;;;19.20;51.60;;;;;;6173948;28;19918;-71
2023/04/03 10:05:54;;;;;;;;;;;;;;;;;;;;;
2023/04/03 10:13:13;;;;;;;;;;;;;;;;;;;;;
2023/04/03 10:31:14;;;;;;;;;;;19.10;50.20;;;;;;6097789;28;20370;-71
2023/04/03 10:41:52;;;;;;;;;;;19.10;50.50;;;;;;6259660;28;20342;-69
2023/04/03 10:45:00;;;;;;;;;;;19.10;50.60;;;;;;6240422;28;19916;-70
2023/04/03 10:48:11;;;;;;;;;;;19.10;50.70;;;;;;6272857;28;19909;-72
2023/04/03 10:51:24;;;;;;;;;;;19.10;50.70;;;;;;6251941;28;19944;-70
2023/04/03 10:54:28;;;;;;;;;;;19.10;50.80;;;;;;6266808;28;19917;-69
2023/04/03 10:57:30;;;;;;;;;;;19.10;50.90;;;;;;6258471;28;19909;-70
2023/04/03 11:00:36;;;;;;;;;;;19.10;50.90;;;;;;6268775;28;19959;-70
2023/04/03 11:03:57;;;;;;;;;;;19.10;50.90;;;;;;6247535;28;20455;-69
2023/04/03 11:07:08;;;;;;;;;;;19.10;50.90;;;;;;6259335;28;19915;-72
2023/04/03 11:10:13;;;;;;;;;;;19.20;51.00;;;;;;6272834;28;19909;-70
2023/04/03 11:13:19;;;;;;;;;;;19.20;50.80;;;;;;6255002;28;19960;-69
2023/04/03 11:16:23;;;;;;;;;;;19.20;50.70;;;;;;6247568;28;20641;-69
2023/04/03 11:19:31;;;;;;;;;;;19.20;50.00;;;;;;6247237;28;20323;-70
2023/04/03 11:23:04;;;;;;;;;;;19.30;50.20;;;;;;6246856;28;19921;-71
2023/04/03 11:26:09;;;;;;;;;;;19.30;50.20;;;;;;6213940;28;19913;-70
2023/04/03 11:29:18;;;;;;;;;;;19.30;50.40;;;;;;6263680;28;19923;-70
2023/04/03 11:32:44;;;;;;;;;;;19.20;50.40;;;;;;6262077;28;19909;-70
2023/04/03 11:35:47;;;;;;;;;;;19.20;50.70;;;;;;6253430;28;20340;-70
2023/04/03 11:38:48;;;;;;;;;;;19.20;50.80;;;;;;6232782;28;20390;-69
2023/04/03 11:41:49;;;;;;;;;;;19.20;50.80;;;;;;6246731;28;19917;-70
2023/04/03 11:44:50;;;;;;;;;;;19.20;50.80;;;;;;6227776;28;19940;-69
2023/04/03 11:47:51;;;;;;;;;;;19.20;50.80;;;;;;6245099;28;19972;-70
2023/04/03 11:50:52;;;;;;;;;;;19.20;50.90;;;;;;6238224;28;19916;-69
2023/04/03 11:53:53;;;;;;;;;;;19.20;51.00;;;;;;6235197;28;19909;-71
2023/04/03 11:56:55;;;;;;;;;;;19.20;51.10;;;;;;6243775;28;21352;-69
2023/04/03 11:59:56;;;;;;;;;;;19.20;51.10;;;;;;6270680;28;19913;-69
2023/04/03 12:02:57;;;;;;;;;;;19.20;51.10;;;;;;6262468;28;19967;-70
2023/04/03 12:06:07;;;;;;;;;;;19.20;51.10;;;;;;6228503;28;20284;-70
2023/04/03 12:09:27;;;;;;;;;;;19.20;51.20;;;;;;6249336;28;19913;-70
2023/04/03 12:12:36;;;;;;;;;;;19.20;51.20;;;;;;6245846;28;19917;-70
2023/04/03 12:15:37;;;;;;;;;;;19.20;51.20;;;;;;6245951;28;19905;-71
2023/04/03 12:18:50;;;;;;;;;;;19.20;51.20;;;;;;6245696;28;19909;-70
2023/04/03 12:21:58;;;;;;;;;;;19.20;51.20;;;;;;6245917;28;19913;-70
2023/04/03 12:25:18;;;;;;;;;;;19.20;51.20;;;;;;6245399;28;19909;-71
2023/04/03 12:28:19;;;;;;;;;;;19.20;51.30;;;;;;6232166;28;19916;-70
2023/04/03 12:31:22;;;;;;;;;;;19.20;51.30;;;;;;6270216;28;19983;-70
2023/04/03 12:34:41;;;;;;;;;;;19.20;51.30;;;;;;6262952;28;19909;-70
2023/04/03 12:37:42;;;;;;;;;;;19.20;51.20;;;;;;6245603;28;19948;-70
2023/04/03 12:40:46;;;;;;;;;;;19.20;51.10;;;;;;6244627;28;19909;-71
2023/04/03 12:44:09;;;;;;;;;;;19.20;51.30;;;;;;6251546;28;19912;-70
2023/04/03 12:47:32;;;;;;;;;;;19.20;51.30;;;;;;6252252;28;20012;-70
2023/04/03 12:50:33;;;;;;;;;;;19.20;51.30;;;;;;6249555;28;19952;-70
2023/04/03 12:53:35;;;;;;;;;;;19.20;51.30;;;;;;6243982;28;19964;-70
2023/04/03 12:56:36;;;;;;;;;;;19.20;51.30;;;;;;6244700;28;20422;-67
2023/04/03 12:59:38;;;;;;;;;;;19.20;51.20;;;;;;6254269;28;19916;-69
2023/04/03 13:02:38;;;;;;;;;;;19.20;51.40;;;;;;6250765;28;19963;-69
2023/04/03 13:05:39;;;;;;;;;;;19.20;51.50;;;;;;6269211;28;19909;-68
2023/04/03 13:08:48;;;;;;;;;;;19.20;51.40;;;;;;6250184;28;19909;-69
2023/04/03 13:11:49;;;;;;;;;;;19.20;51.50;;;;;;6248774;28;20582;-71
2023/04/03 13:14:55;;;;;;;;;;;19.20;51.60;;;;;;6260885;28;19932;-71
2023/04/03 13:17:56;;;;;;;;;;;19.20;51.50;;;;;;6274713;28;19908;-71
2023/04/03 13:20:59;;;;;;;;;;;19.20;51.70;;;;;;6274520;28;19987;-71
2023/04/03 13:24:01;;;;;;;;;;;19.20;51.60;;;;;;6258461;28;19912;-69
2023/04/03 13:27:02;;;;;;;;;;;19.10;51.40;;;;;;6231217;28;19998;-70
2023/04/03 13:30:03;;;;;;;;;;;19.20;51.50;;;;;;6231027;28;19913;-71
2023/04/03 13:33:06;;;;;;;;;;;19.20;51.60;;;;;;6249566;28;20021;-73
2023/04/03 13:36:18;;;;;;;;;;;19.20;51.40;;;;;;6234211;28;19962;-70
2023/04/03 13:39:26;;;;;;;;;;;19.20;51.50;;;;;;6240567;28;20453;-71
2023/04/03 13:42:29;;;;;;;;;;;19.20;51.20;;;;;;6260120;28;19975;-69
2023/04/03 13:45:31;;;;;;;;;;;19.20;50.90;;;;;;6266530;28;19956;-68
2023/04/03 13:48:51;;;;;;;;;;;19.20;51.10;;;;;;6256164;28;19909;-68
2023/04/03 13:51:52;;;;;;;;;;;19.20;51.00;;;;;;6273269;28;19940;-68
2023/04/03 13:54:55;;;;;;;;;;;19.10;50.80;;;;;;6273709;28;19927;-69
2023/04/03 13:58:08;;;;;;;;;;;19.10;50.20;;;;;;6250501;28;19979;-70
2023/04/03 14:01:11;;;;;;;;;;;19.10;48.60;;;;;;6240246;28;19909;-68
2023/04/03 14:04:22;;;;;;;;;;;19.10;49.10;;;;;;6273217;28;19909;-70
2023/04/03 14:07:23;;;;;;;;;;;19.10;48.20;;;;;;6252246;28;19931;-70
2023/04/03 14:10:24;;;;;;;;;;;19.20;47.30;;;;;;6247614;28;19909;-70
2023/04/03 14:13:25;;;;;;;;;;;19.20;47.80;;;;;;6248406;28;19968;-71
2023/04/03 14:16:27;;;;;;;;;;;19.10;47.40;;;;;;6230231;28;19910;-70
2023/04/03 14:19:32;;;;;;;;;;;19.10;47.50;;;;;;6230311;28;19909;-71
2023/04/03 14:22:34;;;;;;;;;;;19.10;47.90;;;;;;6245979;28;19932;-70
2023/04/03 14:25:35;;;;;;;;;;;19.10;48.20;;;;;;6248927;28;19917;-70
2023/04/03 14:28:36;;;;;;;;;;;19.10;48.50;;;;;;6248183;28;19909;-71
2023/04/03 14:31:36;;;;;;;;;;;19.10;48.70;;;;;;6247320;28;19913;-71
2023/04/03 14:34:37;;;;;;;;;;;19.10;48.80;;;;;;6252054;28;19913;-71
2023/04/03 14:37:37;;;;;;;;;;;19.10;48.90;;;;;;6255033;28;20000;-71
2023/04/03 14:40:38;;;;;;;;;;;19.10;49.10;;;;;;6241070;28;19913;-70
2023/04/03 14:43:39;;;;;;;;;;;19.10;49.10;;;;;;6243847;28;20272;-70
2023/04/03 14:46:42;;;;;;;;;;;19.10;49.20;;;;;;6259312;28;19913;-69
2023/04/03 14:49:43;;;;;;;;;;;19.10;49.40;;;;;;6268980;28;19913;-71
2023/04/03 14:52:45;;;;;;;;;;;19.10;49.50;;;;;;6271776;28;19982;-71
2023/04/03 14:55:46;;;;;;;;;;;19.10;49.70;;;;;;6271537;28;19925;-70
2023/04/03 14:58:50;;;;;;;;;;;19.10;49.80;;;;;;6237828;28;19909;-70
2023/04/03 15:01:50;;;;;;;;;;;19.10;49.70;;;;;;6229116;28;20011;-70
2023/04/03 15:04:51;;;;;;;;;;;19.10;49.80;;;;;;6264385;28;20268;-71
2023/04/03 15:07:56;;;;;;;;;;;19.10;49.90;;;;;;6255344;28;19955;-71
2023/04/03 15:10:56;;;;;;;;;;;19.10;49.90;;;;;;6228133;28;19916;-69
2023/04/03 15:13:57;;;;;;;;;;;19.10;50.00;;;;;;6246883;28;19913;-70
2023/04/03 15:16:57;;;;;;;;;;;19.10;50.00;;;;;;6229252;28;19916;-70
2023/04/03 15:19:58;;;;;;;;;;;19.10;50.10;;;;;;6229981;28;19916;-69
2023/04/03 15:23:02;;;;;;;;;;;19.10;50.20;;;;;;6227840;28;19913;-69
2023/04/03 15:26:04;;;;;;;;;;;19.10;50.20;;;;;;6221988;28;19941;-70
2023/04/03 15:29:05;;;;;;;;;;;19.20;50.30;;;;;;6225908;28;20004;-71
2023/04/03 15:32:05;;;;;;;;;;;19.10;50.90;;;;;;6249823;28;19909;-71
2023/04/03 15:35:06;;;;;;;;;;;19.20;50.40;;;;;;6258198;28;19916;-71
2023/04/03 15:38:07;;;;;;;;;;;19.10;50.20;;;;;;6228651;28;20368;-71
2023/04/03 15:41:08;;;;;;;;;;;19.10;50.20;;;;;;6227934;28;20382;-70
2023/04/03 15:44:08;;;;;;;;;;;19.10;50.30;;;;;;6266445;28;19952;-70
2023/04/03 15:47:09;;;;;;;;;;;19.10;50.30;;;;;;6230792;28;20335;-70
2023/04/03 15:50:09;;;;;;;;;;;19.10;50.30;;;;;;6245423;28;19963;-69
2023/04/03 15:53:10;;;;;;;;;;;19.10;50.40;;;;;;6263442;28;19909;-70
2023/04/03 15:56:11;;;;;;;;;;;19.10;50.20;;;;;;6227554;28;19921;-69
2023/04/03 15:59:12;;;;;;;;;;;19.20;50.40;;;;;;6245042;28;19916;-69
2023/04/03 16:02:13;;;;;;;;;;;19.20;50.20;;;;;;6246411;28;19913;-69
2023/04/03 16:05:15;;;;;;;;;;;19.20;50.20;;;;;;6247345;28;19909;-69
2023/04/03 16:08:17;;;;;;;;;;;19.20;50.40;;;;;;6254572;28;19909;-70
2023/04/03 16:11:18;;;;;;;;;;;19.20;50.40;;;;;;6245602;28;19952;-71
2023/04/03 16:14:18;;;;;;;;;;;19.20;50.30;;;;;;6233537;28;19916;-70
2023/04/03 16:17:19;;;;;;;;;;;19.20;50.40;;;;;;6233340;28;20489;-69
2023/04/03 16:20:21;;;;;;;;;;;19.20;50.40;;;;;;6225008;28;20380;-70
2023/04/03 16:23:22;;;;;;;;;;;19.20;50.50;;;;;;6226745;28;20376;-70
2023/04/03 16:26:22;;;;;;;;;;;19.20;50.60;;;;;;6227982;28;19916;-70
2023/04/03 16:29:23;;;;;;;;;;;19.10;50.40;;;;;;6243589;28;20348;-70
2023/04/03 16:32:25;;;;;;;;;;;19.20;50.60;;;;;;6251372;28;19909;-70
2023/04/03 16:35:26;;;;;;;;;;;19.20;50.70;;;;;;6224967;28;19932;-69
2023/04/03 16:38:26;;;;;;;;;;;19.10;50.50;;;;;;6235535;28;20329;-70
2023/04/03 16:41:27;;;;;;;;;;;19.10;50.60;;;;;;6245346;28;19924;-70
2023/04/03 16:44:27;;;;;;;;;;;19.10;50.60;;;;;;6228930;28;20418;-71
2023/04/03 16:47:28;;;;;;;;;;;19.20;50.70;;;;;;6259183;28;19964;-70
2023/04/03 16:50:28;;;;;;;;;;;19.20;50.70;;;;;;6234319;28;19959;-70
2023/04/03 16:57:15;;;;;;;;;;;19.10;50.70;;;;;;6248459;28;19921;-70
2023/04/03 17:00:16;;;;;;;;;;;19.10;50.60;;;;;;6245867;28;20439;-70
2023/04/03 17:03:17;;;;;;;;;;;19.10;50.70;;;;;;6249561;28;20304;-72
2023/04/03 17:06:19;;;;;;;;;;;19.20;50.80;;;;;;6243584;28;19913;-70
2023/04/03 17:09:20;;;;;;;;;;;19.10;50.70;;;;;;6246237;28;19909;-71
2023/04/03 17:12:22;;;;;;;;;;;19.10;50.70;;;;;;6248948;28;20277;-71
2023/04/03 17:15:37;;;;;;;;;;;19.10;50.70;;;;;;6233134;28;19922;-71
2023/04/03 17:18:38;;;;;;;;;;;19.10;50.80;;;;;;6230894;28;19913;-71
2023/04/03 17:21:39;;;;;;;;;;;19.10;50.80;;;;;;6249845;28;19929;-71
2023/04/03 17:24:40;;;;;;;;;;;19.10;50.70;;;;;;6248771;28;19932;-71
2023/04/03 17:27:41;;;;;;;;;;;19.10;50.60;;;;;;6249256;28;20036;-71
2023/04/03 17:30:41;;;;;;;;;;;19.20;50.70;;;;;;6227674;28;19913;-73
2023/04/03 17:33:43;;;;;;;;;;;19.20;50.70;;;;;;6221815;28;19913;-70
2023/04/03 17:36:44;;;;;;;;;;;19.20;50.70;;;;;;6231960;28;20295;-72
2023/04/03 17:39:45;;;;;;;;;;;19.20;50.80;;;;;;6232372;28;19925;-71
2023/04/03 17:42:46;;;;;;;;;;;19.20;50.80;;;;;;6249562;28;20345;-71
2023/04/03 17:45:47;;;;;;;;;;;19.20;50.80;;;;;;6249548;28;19905;-70
2023/04/03 17:48:49;;;;;;;;;;;19.10;50.70;;;;;;6232013;28;19916;-70
2023/04/03 17:51:49;;;;;;;;;;;19.10;50.70;;;;;;6231416;28;19913;-71
2023/04/03 17:54:50;;;;;;;;;;;19.10;50.70;;;;;;6247883;28;20403;-70
2023/04/03 17:57:52;;;;;;;;;;;19.10;50.80;;;;;;6228281;28;19925;-72
2023/04/03 18:00:53;;;;;;;;;;;19.10;50.80;;;;;;6227505;28;20285;-71
2023/04/03 18:03:55;;;;;;;;;;;19.10;50.80;;;;;;6256906;28;20343;-71
2023/04/03 18:06:56;;;;;;;;;;;19.10;50.80;;;;;;6253019;28;19968;-70
2023/04/03 18:09:58;;;;;;;;;;;19.10;50.80;;;;;;6270351;28;20323;-70
2023/04/03 18:12:59;;;;;;;;;;;19.10;50.80;;;;;;6252711;28;19916;-70
2023/04/03 18:16:00;;;;;;;;;;;19.10;50.80;;;;;;6270534;28;20287;-71
2023/04/03 18:19:03;;;;;;;;;;;19.10;50.70;;;;;;6259117;28;20122;-70
2023/04/03 18:22:07;;;;;;;;;;;19.10;50.80;;;;;;6227381;28;19913;-70
2023/04/03 18:25:10;;;;;;;;;;;19.10;50.70;;;;;;6245059;28;19996;-70
2023/04/03 18:28:11;;;;;;;;;;;19.10;50.80;;;;;;6229805;28;19913;-71
2023/04/03 18:31:14;;;;;;;;;;;19.10;50.70;;;;;;6270232;28;20363;-72
2023/04/03 18:34:15;;;;;;;;;;;19.10;50.80;;;;;;6259935;28;20442;-71
2023/04/03 18:37:17;;;;;;;;;;;19.10;50.80;;;;;;6227452;28;19968;-70
2023/04/03 18:40:18;;;;;;;;;;;19.10;50.80;;;;;;6244934;28;19924;-70
2023/04/03 18:43:19;;;;;;;;;;;19.10;50.90;;;;;;6228291;28;19921;-71
2023/04/03 18:46:20;;;;;;;;;;;19.10;50.90;;;;;;6269732;28;20354;-71
2023/04/03 18:49:21;;;;;;;;;;;19.10;51.00;;;;;;6242691;28;19920;-70
2023/04/03 18:52:24;;;;;;;;;;;19.10;50.90;;;;;;6245107;28;19993;-70
2023/04/03 18:55:25;;;;;;;;;;;19.10;50.90;;;;;;6242193;28;19922;-70
2023/04/03 18:58:26;;;;;;;;;;;19.10;50.90;;;;;;6220233;28;19916;-70
2023/04/03 19:01:27;;;;;;;;;;;19.10;50.90;;;;;;6226190;28;19913;-70
2023/04/03 19:04:28;;;;;;;;;;;19.10;50.80;;;;;;6236306;28;19916;-71
2023/04/03 19:07:29;;;;;;;;;;;19.00;50.90;;;;;;6219566;28;19917;-70
2023/04/03 19:10:30;;;;;;;;;;;19.00;50.90;;;;;;6235105;28;19936;-70
2023/04/03 19:13:31;;;;;;;;;;;19.00;50.80;;;;;;6244692;28;20284;-70
2023/04/03 19:16:34;;;;;;;;;;;19.10;51.00;;;;;;6220498;28;20012;-70
2023/04/03 19:19:35;;;;;;;;;;;19.00;50.90;;;;;;6220387;28;19917;-70
2023/04/03 19:22:36;;;;;;;;;;;19.00;50.90;;;;;;6201617;28;20331;-70
2023/04/03 19:25:37;;;;;;;;;;;19.00;51.00;;;;;;6201111;28;19916;-70
2023/04/03 19:28:38;;;;;;;;;;;19.00;50.90;;;;;;6219284;28;19909;-70
2023/04/03 19:31:40;;;;;;;;;;;19.00;50.90;;;;;;6241850;28;19910;-70
2023/04/03 19:34:41;;;;;;;;;;;19.00;50.90;;;;;;6243659;28;20458;-70
2023/04/03 19:37:42;;;;;;;;;;;19.00;50.90;;;;;;6244464;28;20382;-70
2023/04/03 19:40:42;;;;;;;;;;;19.00;50.90;;;;;;6212637;28;19910;-72
2023/04/03 19:43:44;;;;;;;;;;;19.00;51.00;;;;;;6219023;28;19944;-72
2023/04/03 19:46:45;;;;;;;;;;;19.00;50.90;;;;;;6232512;28;20428;-71
2023/04/03 19:49:46;;;;;;;;;;;19.00;50.90;;;;;;6238721;28;19913;-70
2023/04/03 19:52:46;;;;;;;;;;;19.00;50.90;;;;;;6218630;28;19910;-70
2023/04/03 19:55:48;;;;;;;;;;;19.00;51.00;;;;;;6236097;28;20036;-70
2023/04/03 19:58:57;;;;;;;;;;;19.00;51.00;;;;;;6267316;28;19909;-70
2023/04/03 20:01:58;;;;;;;;;;;19.00;51.00;;;;;;6246472;28;19917;-71
2023/04/03 20:04:59;;;;;;;;;;;19.00;50.90;;;;;;6243789;28;19910;-70